createdAt,value
2018-07-27T00:01:14.432Z,22.92
2018-07-27T00:03:42.255Z,22.78
2018-07-27T00:06:10.056Z,22.77
2018-07-27T00:08:37.904Z,22.74
2018-07-27T00:11:05.687Z,22.57
2018-07-27T00:13:33.589Z,22.56
2018-07-27T00:16:01.824Z,22.60
2018-07-27T00:18:29.627Z,22.57
2018-07-27T00:20:57.519Z,22.45
2018-07-27T00:23:25.381Z,22.49
2018-07-27T00:25:53.179Z,22.37
2018-07-27T00:28:20.955Z,22.42
2018-07-27T00:30:48.675Z,22.39
2018-07-27T00:33:16.455Z,22.28
2018-07-27T00:35:44.188Z,22.31
2018-07-27T00:38:12.116Z,22.21
2018-07-27T00:40:39.975Z,22.16
2018-07-27T00:43:07.824Z,22.31
2018-07-27T00:45:35.690Z,22.14
2018-07-27T00:48:03.607Z,22.11
2018-07-27T00:50:31.328Z,22.07
2018-07-27T00:52:59.037Z,22.02
2018-07-27T00:55:26.836Z,21.97
2018-07-27T00:57:54.666Z,21.97
2018-07-27T01:00:22.467Z,21.99
2018-07-27T01:02:50.262Z,21.97
2018-07-27T01:07:52.571Z,21.91
2018-07-27T01:10:20.417Z,21.92
2018-07-27T01:12:48.234Z,21.90
2018-07-27T01:15:16.025Z,21.87
2018-07-27T01:17:43.840Z,21.86
2018-07-27T01:20:11.702Z,21.82
2018-07-27T01:22:39.540Z,21.79
2018-07-27T01:25:07.301Z,21.79
2018-07-27T01:27:35.098Z,21.80
2018-07-27T01:30:03.648Z,21.77
2018-07-27T01:32:31.459Z,21.83
2018-07-27T01:34:59.216Z,21.75
2018-07-27T01:37:26.963Z,21.74
2018-07-27T01:39:54.712Z,21.73
2018-07-27T01:42:22.521Z,21.68
2018-07-27T01:44:50.383Z,21.66
2018-07-27T01:47:18.207Z,21.64
2018-07-27T01:49:45.971Z,21.59
2018-07-27T01:52:13.751Z,21.61
2018-07-27T01:54:41.500Z,21.54
2018-07-27T01:57:09.243Z,21.53
2018-07-27T01:59:37.070Z,21.47
2018-07-27T02:02:05.080Z,21.50
2018-07-27T02:04:32.911Z,21.42
2018-07-27T02:07:00.721Z,21.48
2018-07-27T02:09:28.552Z,21.42
2018-07-27T02:11:56.382Z,21.39
2018-07-27T02:14:24.159Z,21.35
2018-07-27T02:16:52.016Z,21.40
2018-07-27T02:19:19.820Z,21.38
2018-07-27T02:21:47.707Z,21.25
2018-07-27T02:24:15.532Z,21.19
2018-07-27T02:26:43.334Z,21.24
2018-07-27T02:29:11.119Z,21.11
2018-07-27T02:31:38.936Z,21.09
2018-07-27T02:34:06.719Z,21.15
2018-07-27T02:36:34.523Z,21.09
2018-07-27T02:39:02.372Z,21.04
2018-07-27T02:41:30.197Z,20.99
2018-07-27T02:43:58.062Z,21.04
2018-07-27T02:46:25.866Z,20.99
2018-07-27T02:48:53.652Z,21.01
2018-07-27T02:51:21.521Z,20.98
2018-07-27T02:53:49.345Z,21.03
2018-07-27T02:56:17.203Z,21.00
2018-07-27T02:58:44.995Z,20.97
2018-07-27T03:01:12.821Z,20.95
2018-07-27T03:03:40.568Z,20.88
2018-07-27T03:06:08.288Z,20.88
2018-07-27T03:08:36.084Z,20.84
2018-07-27T03:11:03.913Z,20.81
2018-07-27T03:13:31.714Z,20.74
2018-07-27T03:15:59.644Z,20.78
2018-07-27T03:18:27.459Z,20.70
2018-07-27T03:20:55.383Z,20.71
2018-07-27T03:23:23.183Z,20.62
2018-07-27T03:25:50.959Z,20.63
2018-07-27T03:28:18.785Z,20.62
2018-07-27T03:30:46.611Z,20.58
2018-07-27T03:33:14.402Z,20.57
2018-07-27T03:35:42.187Z,20.57
2018-07-27T03:38:09.962Z,20.59
2018-07-27T03:40:37.755Z,20.61
2018-07-27T03:43:05.515Z,20.61
2018-07-27T03:45:33.367Z,20.60
2018-07-27T03:48:05.703Z,20.57
2018-07-27T03:50:33.452Z,20.53
2018-07-27T03:53:01.231Z,20.52
2018-07-27T03:55:28.963Z,20.50
2018-07-27T03:57:56.760Z,20.46
2018-07-27T04:00:24.602Z,20.52
2018-07-27T04:02:52.356Z,20.49
2018-07-27T04:05:20.124Z,20.47
2018-07-27T04:07:47.947Z,20.47
2018-07-27T04:10:15.767Z,20.45
2018-07-27T04:12:43.603Z,20.43
2018-07-27T04:15:11.380Z,20.40
2018-07-27T04:17:39.144Z,20.43
2018-07-27T04:20:07.120Z,20.41
2018-07-27T04:22:34.919Z,20.42
2018-07-27T04:25:02.740Z,20.44
2018-07-27T04:27:30.519Z,20.43
2018-07-27T04:29:58.378Z,20.49
2018-07-27T04:32:26.111Z,20.57
2018-07-27T04:34:53.944Z,20.58
2018-07-27T04:37:21.725Z,20.65
2018-07-27T04:39:49.440Z,20.65
2018-07-27T04:42:17.240Z,20.66
2018-07-27T04:44:45.070Z,20.68
2018-07-27T04:47:12.857Z,20.71
2018-07-27T04:49:40.867Z,20.78
2018-07-27T04:52:08.668Z,20.83
2018-07-27T04:54:36.455Z,20.88
2018-07-27T04:57:04.415Z,21.02
2018-07-27T04:59:32.207Z,21.06
2018-07-27T05:01:59.971Z,21.09
2018-07-27T05:04:27.743Z,21.14
2018-07-27T05:06:55.591Z,21.20
2018-07-27T05:09:23.808Z,21.32
2018-07-27T05:11:51.964Z,21.44
2018-07-27T05:14:19.691Z,21.56
2018-07-27T05:16:47.519Z,21.91
2018-07-27T05:19:15.323Z,22.37
2018-07-27T05:21:43.197Z,23.07
2018-07-27T05:24:11.032Z,23.57
2018-07-27T05:26:38.852Z,24.10
2018-07-27T05:29:06.675Z,24.85
2018-07-27T05:31:34.431Z,25.55
2018-07-27T05:34:02.294Z,26.28
2018-07-27T05:36:30.095Z,26.93
2018-07-27T05:38:58.322Z,27.20
2018-07-27T05:41:26.174Z,27.52
2018-07-27T05:43:53.991Z,27.52
2018-07-27T05:46:21.843Z,27.52
2018-07-27T05:48:49.684Z,27.42
2018-07-27T05:51:17.473Z,27.31
2018-07-27T05:53:45.306Z,27.37
2018-07-27T05:56:13.119Z,27.43
2018-07-27T05:58:40.975Z,27.70
2018-07-27T06:01:09.294Z,27.98
2018-07-27T06:03:37.119Z,28.41
2018-07-27T06:06:05.240Z,28.48
2018-07-27T06:08:33.692Z,28.51
2018-07-27T06:11:01.555Z,28.49
2018-07-27T06:13:29.392Z,28.53
2018-07-27T06:15:57.375Z,28.46
2018-07-27T06:18:25.183Z,28.54
2018-07-27T06:20:53.013Z,28.67
2018-07-27T06:23:20.814Z,28.59
2018-07-27T06:25:48.568Z,28.32
2018-07-27T06:28:16.390Z,28.61
2018-07-27T06:30:45.051Z,28.66
2018-07-27T06:33:12.801Z,28.94
2018-07-27T06:35:40.628Z,29.02
2018-07-27T06:38:08.503Z,28.96
2018-07-27T06:40:36.315Z,29.01
2018-07-27T06:43:04.227Z,28.83
2018-07-27T06:45:31.960Z,28.79
2018-07-27T06:47:59.755Z,28.63
2018-07-27T06:50:27.520Z,28.51
2018-07-27T06:52:55.285Z,28.38
2018-07-27T06:55:23.116Z,28.40
2018-07-27T06:57:51.326Z,28.44
2018-07-27T07:00:19.109Z,28.36
2018-07-27T07:02:46.890Z,28.33
2018-07-27T07:05:14.688Z,28.34
2018-07-27T07:07:42.467Z,28.54
2018-07-27T07:10:10.368Z,28.69
2018-07-27T07:12:38.168Z,28.70
2018-07-27T07:15:07.355Z,28.63
2018-07-27T07:17:35.179Z,28.58
2018-07-27T07:20:03.787Z,28.72
2018-07-27T07:22:31.604Z,28.69
2018-07-27T07:24:59.471Z,28.79
2018-07-27T07:27:27.263Z,28.73
2018-07-27T07:29:55.088Z,28.69
2018-07-27T07:32:22.855Z,28.84
2018-07-27T07:34:50.611Z,28.87
2018-07-27T07:37:18.647Z,28.86
2018-07-27T07:39:46.443Z,28.91
2018-07-27T07:42:14.264Z,28.93
2018-07-27T07:44:42.155Z,28.90
2018-07-27T07:47:09.953Z,28.88
2018-07-27T07:49:37.668Z,28.95
2018-07-27T07:52:05.800Z,28.94
2018-07-27T07:54:33.617Z,28.86
2018-07-27T07:57:01.374Z,28.95
2018-07-27T07:59:29.112Z,28.96
2018-07-27T08:01:56.856Z,28.97
2018-07-27T08:04:24.776Z,29.03
2018-07-27T08:06:52.491Z,29.03
2018-07-27T08:09:20.359Z,29.08
2018-07-27T08:11:48.179Z,29.12
2018-07-27T08:14:15.939Z,29.10
2018-07-27T08:16:43.737Z,29.16
2018-07-27T08:19:11.520Z,29.21
2018-07-27T08:21:39.387Z,29.23
2018-07-27T08:24:07.216Z,29.29
2018-07-27T08:26:45.760Z,29.37
2018-07-27T08:29:14.903Z,29.46
2018-07-27T08:31:43.972Z,29.47
2018-07-27T08:34:12.696Z,29.56
2018-07-27T08:36:40.515Z,29.66
2018-07-27T08:39:10.888Z,29.64
2018-07-27T08:41:39.341Z,29.66
2018-07-27T08:44:08.173Z,29.72
2018-07-27T08:46:36.223Z,29.85
2018-07-27T08:49:04.131Z,29.99
2018-07-27T08:51:32.199Z,30.15
2018-07-27T08:53:59.938Z,30.33
2018-07-27T08:56:27.773Z,30.53
2018-07-27T08:58:55.640Z,30.65
2018-07-27T09:01:24.095Z,30.71
2018-07-27T09:03:52.176Z,30.74
2018-07-27T09:06:19.962Z,30.76
2018-07-27T09:08:48.376Z,30.77
2018-07-27T09:11:16.195Z,30.71
2018-07-27T09:13:43.983Z,30.77
2018-07-27T09:16:11.791Z,30.77
2018-07-27T09:18:39.522Z,30.79
2018-07-27T09:21:07.321Z,30.88
2018-07-27T09:23:35.450Z,30.84
2018-07-27T09:26:03.298Z,30.89
2018-07-27T09:28:31.092Z,30.95
2018-07-27T09:30:58.871Z,30.94
2018-07-27T09:33:26.683Z,31.03
2018-07-27T09:35:54.476Z,31.01
2018-07-27T09:38:22.291Z,31.08
2018-07-27T09:40:50.140Z,31.14
2018-07-27T09:43:18.515Z,31.14
2018-07-27T09:45:46.239Z,31.19
2018-07-27T09:48:14.024Z,31.20
2018-07-27T09:50:42.963Z,31.32
2018-07-27T09:53:10.940Z,31.44
2018-07-27T09:55:38.779Z,31.91
2018-07-27T09:58:06.667Z,32.34
2018-07-27T10:00:40.132Z,33.03
2018-07-27T10:03:07.942Z,33.82
2018-07-27T10:05:35.650Z,34.29
2018-07-27T10:08:03.583Z,34.82
2018-07-27T10:10:31.367Z,35.31
2018-07-27T10:12:59.332Z,35.42
2018-07-27T10:15:27.087Z,35.46
2018-07-27T10:17:54.903Z,35.25
2018-07-27T10:20:22.751Z,35.56
2018-07-27T10:22:50.503Z,35.89
2018-07-27T10:25:18.327Z,35.90
2018-07-27T10:27:46.484Z,35.74
2018-07-27T10:30:14.384Z,35.99
2018-07-27T10:32:42.160Z,36.32
2018-07-27T10:35:10.007Z,36.55
2018-07-27T10:37:37.903Z,37.20
2018-07-27T10:40:06.723Z,37.74
2018-07-27T10:42:34.499Z,38.34
2018-07-27T10:45:02.379Z,38.93
2018-07-27T10:47:30.159Z,39.30
2018-07-27T10:49:57.947Z,39.58
2018-07-27T10:52:25.752Z,39.98
2018-07-27T10:54:53.559Z,40.27
2018-07-27T10:57:21.372Z,40.27
2018-07-27T10:59:49.187Z,40.30
2018-07-27T11:02:17.084Z,41.02
2018-07-27T11:04:44.883Z,41.72
2018-07-27T11:07:12.726Z,42.11
2018-07-27T11:09:40.600Z,42.75
2018-07-27T11:12:08.320Z,43.61
2018-07-27T11:14:36.119Z,43.79
2018-07-27T11:17:03.972Z,44.25
2018-07-27T11:19:32.164Z,44.39
2018-07-27T11:22:00.016Z,44.73
2018-07-27T11:24:27.773Z,45.37
2018-07-27T11:26:55.555Z,45.51
2018-07-27T11:29:23.396Z,46.21
2018-07-27T11:31:51.227Z,45.78
2018-07-27T11:34:19.051Z,46.21
2018-07-27T11:36:46.845Z,46.39
2018-07-27T11:39:14.631Z,45.85
2018-07-27T11:41:42.398Z,45.50
2018-07-27T11:44:10.140Z,45.40
2018-07-27T11:46:37.979Z,45.24
2018-07-27T12:00:54.483Z,46.31
2018-07-27T12:03:22.343Z,46.31
2018-07-27T12:05:50.189Z,46.46
2018-07-27T12:08:18.007Z,46.40
2018-07-27T12:10:45.863Z,46.22
2018-07-27T12:13:13.640Z,46.24
2018-07-27T12:15:41.392Z,45.98
2018-07-27T12:18:09.132Z,46.40
2018-07-27T12:20:37.064Z,46.40
2018-07-27T12:23:04.776Z,46.27
2018-07-27T12:25:32.575Z,46.10
2018-07-27T12:28:00.395Z,45.98
2018-07-27T12:30:28.332Z,46.03
2018-07-27T12:32:56.068Z,46.11
2018-07-27T12:35:23.793Z,45.48
2018-07-27T12:37:51.658Z,45.07
2018-07-27T12:40:19.530Z,45.01
2018-07-27T12:42:47.276Z,44.73
2018-07-27T12:45:15.122Z,44.89
2018-07-27T12:47:42.920Z,44.90
2018-07-27T12:50:10.975Z,44.71
2018-07-27T12:52:38.742Z,44.74
2018-07-27T12:55:06.751Z,44.87
2018-07-27T12:57:34.616Z,44.59
2018-07-27T13:00:02.407Z,44.37
2018-07-27T13:02:30.179Z,44.62
2018-07-27T13:04:57.964Z,44.44
2018-07-27T13:07:25.750Z,44.18
2018-07-27T13:09:58.092Z,44.24
2018-07-27T13:12:25.859Z,44.17
2018-07-27T13:14:53.627Z,43.83
2018-07-27T13:17:21.377Z,43.90
2018-07-27T13:19:49.192Z,43.73
2018-07-27T13:22:17.064Z,43.46
2018-07-27T13:24:59.730Z,43.24
2018-07-27T13:27:12.573Z,42.70
2018-07-27T13:29:40.376Z,42.67
2018-07-27T13:34:55.316Z,42.14
2018-07-27T13:37:25.403Z,41.91
2018-07-27T13:42:24.427Z,41.36
2018-07-27T13:44:52.238Z,41.30
2018-07-27T13:47:20.161Z,41.18
2018-07-27T13:49:48.020Z,41.11
2018-07-27T13:52:15.883Z,41.03
2018-07-27T13:54:43.693Z,40.71
2018-07-27T13:57:11.572Z,40.11
2018-07-27T13:59:39.811Z,39.87
2018-07-27T14:02:08.068Z,39.84
2018-07-27T14:04:35.927Z,39.71
2018-07-27T14:07:04.770Z,39.63
2018-07-27T14:09:32.574Z,39.60
2018-07-27T14:12:00.488Z,39.36
2018-07-27T14:14:28.354Z,39.10
2018-07-27T14:16:56.171Z,38.97
2018-07-27T14:19:24.680Z,38.88
2018-07-27T14:21:52.565Z,38.66
2018-07-27T14:24:20.380Z,38.45
2018-07-27T14:26:48.182Z,38.46
2018-07-27T14:29:16.057Z,38.36
2018-07-27T14:31:43.771Z,38.07
2018-07-27T14:34:11.550Z,38.02
2018-07-27T14:36:39.595Z,37.87
2018-07-27T14:39:09.073Z,37.51
2018-07-27T14:41:37.029Z,37.23
2018-07-27T14:44:04.831Z,37.21
2018-07-27T14:46:32.813Z,37.34
2018-07-27T14:49:00.563Z,37.21
2018-07-27T14:51:28.719Z,37.21
2018-07-27T14:53:56.713Z,37.08
2018-07-27T14:56:24.503Z,37.04
2018-07-27T14:58:52.329Z,37.03
2018-07-27T15:01:20.127Z,36.92
2018-07-27T15:03:47.896Z,36.90
2018-07-27T15:06:15.697Z,36.91
2018-07-27T15:08:43.575Z,36.86
2018-07-27T15:11:11.349Z,36.79
2018-07-27T15:13:39.183Z,36.77
2018-07-27T15:16:06.975Z,36.73
2018-07-27T15:18:34.744Z,36.71
2018-07-27T15:21:02.530Z,36.61
2018-07-27T15:23:30.353Z,36.48
2018-07-27T15:25:58.139Z,36.33
2018-07-27T15:28:26.018Z,36.35
2018-07-27T15:30:53.800Z,36.40
2018-07-27T15:33:21.520Z,36.43
2018-07-27T15:35:49.287Z,36.36
2018-07-27T15:38:17.055Z,36.31
2018-07-27T15:40:44.900Z,36.44
2018-07-27T15:43:12.689Z,36.45
2018-07-27T15:45:40.487Z,36.24
2018-07-27T15:48:08.347Z,36.29
2018-07-27T15:50:36.130Z,36.31
2018-07-27T15:53:03.999Z,36.34
2018-07-27T15:55:31.861Z,36.39
2018-07-27T15:58:01.411Z,36.42
2018-07-27T16:00:29.182Z,36.46
2018-07-27T16:02:57.031Z,36.55
2018-07-27T16:05:24.808Z,36.64
2018-07-27T16:07:52.601Z,36.76
2018-07-27T16:10:20.457Z,36.80
2018-07-27T16:12:48.284Z,36.79
2018-07-27T16:15:16.083Z,36.86
2018-07-27T16:17:43.872Z,36.83
2018-07-27T16:20:11.651Z,36.71
2018-07-27T16:22:39.567Z,36.67
2018-07-27T16:25:07.449Z,36.58
2018-07-27T16:27:35.255Z,36.56
2018-07-27T16:30:03.305Z,36.63
2018-07-27T16:32:31.147Z,36.61
2018-07-27T16:34:58.980Z,36.40
2018-07-27T16:37:26.799Z,36.23
2018-07-27T16:39:54.687Z,36.20
2018-07-27T16:42:22.435Z,36.07
2018-07-27T16:44:50.232Z,36.12
2018-07-27T16:47:18.075Z,35.94
2018-07-27T16:49:45.900Z,35.92
2018-07-27T16:52:13.719Z,35.87
2018-07-27T16:54:41.608Z,35.72
2018-07-27T16:57:09.405Z,35.55
2018-07-27T16:59:37.471Z,35.49
2018-07-27T17:02:05.275Z,35.47
2018-07-27T17:04:33.040Z,35.31
2018-07-27T17:07:01.077Z,35.25
2018-07-27T17:09:28.911Z,35.22
2018-07-27T17:11:56.698Z,35.17
2018-07-27T17:14:24.467Z,35.03
2018-07-27T17:16:52.259Z,34.97
2018-07-27T17:19:20.061Z,34.78
2018-07-27T17:21:47.861Z,34.75
2018-07-27T17:24:15.737Z,34.69
2018-07-27T17:26:43.569Z,34.65
2018-07-27T17:29:11.311Z,34.66
2018-07-27T17:31:39.103Z,34.59
2018-07-27T17:34:06.875Z,34.51
2018-07-27T17:36:34.720Z,34.49
2018-07-27T17:39:02.886Z,34.47
2018-07-27T17:41:30.707Z,34.36
2018-07-27T17:43:58.495Z,34.28
2018-07-27T17:46:26.287Z,34.28
2018-07-27T17:48:54.155Z,34.19
2018-07-27T17:51:21.971Z,34.17
2018-07-27T17:53:49.851Z,34.07
2018-07-27T17:56:17.723Z,33.98
2018-07-27T17:58:45.518Z,33.89
2018-07-27T18:01:13.297Z,33.82
2018-07-27T18:03:41.083Z,33.71
2018-07-27T18:06:08.860Z,33.70
2018-07-27T18:08:36.651Z,33.65
2018-07-27T18:11:04.451Z,33.55
2018-07-27T18:13:32.262Z,33.50
2018-07-27T18:16:00.035Z,33.42
2018-07-27T18:18:27.791Z,33.34
2018-07-27T18:20:55.576Z,33.26
2018-07-27T18:23:23.387Z,33.18
2018-07-27T18:25:51.226Z,33.07
2018-07-27T18:28:19.027Z,32.95
2018-07-27T18:30:46.906Z,32.92
2018-07-27T18:33:14.700Z,32.75
2018-07-27T18:35:42.508Z,32.77
2018-07-27T18:38:10.343Z,32.62
2018-07-27T18:40:38.088Z,32.56
2018-07-27T18:43:05.917Z,32.47
2018-07-27T18:45:33.777Z,32.38
2018-07-27T18:48:01.577Z,32.23
2018-07-27T18:50:29.464Z,32.17
2018-07-27T18:52:57.257Z,32.04
2018-07-27T18:55:25.113Z,32.02
2018-07-27T18:57:52.911Z,31.89
2018-07-27T19:00:20.680Z,31.75
2018-07-27T19:02:48.515Z,31.67
2018-07-27T19:05:16.237Z,31.67
2018-07-27T19:07:44.075Z,31.54
2018-07-27T19:10:11.931Z,31.38
2018-07-27T19:12:39.710Z,31.35
2018-07-27T19:15:08.299Z,31.14
2018-07-27T19:17:36.228Z,31.07
2018-07-27T19:20:04.358Z,31.08
2018-07-27T19:22:32.215Z,30.90
2018-07-27T19:25:00.024Z,30.86
2018-07-27T19:27:27.836Z,30.74
2018-07-27T19:29:55.621Z,30.62
2018-07-27T19:32:23.374Z,30.52
2018-07-27T19:34:51.216Z,30.43
2018-07-27T19:37:18.980Z,30.21
2018-07-27T19:39:46.766Z,30.20
2018-07-27T19:42:14.583Z,30.24
2018-07-27T19:44:42.319Z,30.13
2018-07-27T19:47:10.124Z,30.04
2018-07-27T19:49:38.010Z,29.93
2018-07-27T19:52:05.969Z,29.97
2018-07-27T19:54:33.944Z,29.91
2018-07-27T19:57:01.675Z,29.81
2018-07-27T19:59:29.458Z,29.74
2018-07-27T20:01:57.244Z,29.59
2018-07-27T20:04:25.029Z,29.51
2018-07-27T20:06:52.876Z,29.56
2018-07-27T20:09:20.705Z,29.50
2018-07-27T20:11:48.491Z,29.42
2018-07-27T20:14:16.270Z,29.34
2018-07-27T20:16:44.083Z,29.19
2018-07-27T20:19:11.883Z,29.12
2018-07-27T20:21:39.915Z,29.10
2018-07-27T20:24:07.671Z,29.01
2018-07-27T20:26:35.478Z,28.80
2018-07-27T20:29:03.380Z,28.83
2018-07-27T20:31:31.118Z,28.73
2018-07-27T20:33:58.971Z,28.62
2018-07-27T20:36:26.818Z,28.55
2018-07-27T20:38:54.767Z,28.45
2018-07-27T20:41:22.832Z,28.47
2018-07-27T20:43:50.767Z,28.28
2018-07-27T20:46:18.524Z,28.31
2018-07-27T20:48:46.416Z,28.29
2018-07-27T20:51:14.291Z,28.15
2018-07-27T20:53:42.075Z,28.07
2018-07-27T20:56:09.808Z,27.97
2018-07-27T20:58:37.629Z,27.98
2018-07-27T21:01:05.426Z,27.97
2018-07-27T21:03:33.304Z,27.81
2018-07-27T21:06:01.131Z,27.73
2018-07-27T21:08:28.903Z,27.73
2018-07-27T21:10:56.696Z,27.68
2018-07-27T21:13:24.556Z,27.51
2018-07-27T21:15:52.387Z,27.41
2018-07-27T21:18:20.235Z,27.21
2018-07-27T21:20:47.983Z,27.28
2018-07-27T21:23:15.810Z,27.20
2018-07-27T21:25:43.640Z,27.13
2018-07-27T21:28:11.392Z,27.09
2018-07-27T21:30:39.211Z,26.99
2018-07-27T21:33:06.995Z,26.80
2018-07-27T21:35:34.779Z,26.62
2018-07-27T21:38:03.010Z,26.66
2018-07-27T21:40:30.904Z,26.49
2018-07-27T21:42:58.726Z,26.28
2018-07-27T21:45:26.599Z,26.12
2018-07-27T21:47:54.453Z,26.15
2018-07-27T21:50:22.207Z,26.13
2018-07-27T21:52:50.156Z,26.22
2018-07-27T21:55:18.163Z,26.31
2018-07-27T21:57:45.990Z,26.33
2018-07-27T22:00:14.256Z,26.24
2018-07-27T22:02:42.313Z,26.29
2018-07-27T22:05:10.180Z,26.35
2018-07-27T22:07:37.979Z,26.19
2018-07-27T22:10:05.920Z,26.04
2018-07-27T22:12:33.752Z,25.80
2018-07-27T22:15:01.581Z,25.69
2018-07-27T22:17:29.385Z,25.51
2018-07-27T22:19:57.435Z,25.53
2018-07-27T22:22:25.283Z,25.47
2018-07-27T22:24:53.945Z,25.42
2018-07-27T22:27:21.924Z,25.36
2018-07-27T22:29:50.145Z,25.14
2018-07-27T22:32:18.028Z,25.17
2018-07-27T22:34:48.674Z,25.14
2018-07-27T22:37:16.619Z,25.12
2018-07-27T22:39:44.404Z,25.01
2018-07-27T22:42:12.314Z,25.04
2018-07-27T22:44:40.162Z,24.91
2018-07-27T22:47:07.959Z,24.88
2018-07-27T22:49:35.697Z,24.93
2018-07-27T22:52:03.593Z,24.84
2018-07-27T22:54:32.066Z,24.69
2018-07-27T22:57:00.856Z,24.61
2018-07-27T22:59:30.117Z,24.61
2018-07-27T23:01:58.041Z,24.56
2018-07-27T23:04:25.747Z,24.55
2018-07-27T23:06:53.527Z,24.50
2018-07-27T23:09:21.325Z,24.50
2018-07-27T23:11:50.319Z,24.36
2018-07-27T23:14:18.154Z,24.51
2018-07-27T23:16:46.019Z,24.38
2018-07-27T23:19:13.913Z,24.33
2018-07-27T23:21:41.711Z,24.24
2018-07-27T23:24:09.505Z,24.26
2018-07-27T23:26:37.346Z,24.16
2018-07-27T23:29:05.219Z,24.10
2018-07-27T23:31:33.012Z,24.10
2018-07-27T23:34:00.891Z,23.92
2018-07-27T23:36:28.773Z,23.96
2018-07-27T23:38:56.651Z,23.84
2018-07-27T23:41:24.533Z,24.01
2018-07-27T23:43:52.317Z,23.91
2018-07-27T23:46:20.121Z,23.82
2018-07-27T23:48:47.927Z,23.74
2018-07-27T23:51:15.731Z,23.69
2018-07-27T23:53:43.500Z,23.72
2018-07-27T23:56:11.350Z,23.78
2018-07-27T23:58:39.132Z,23.59
